Time;durP1;ratioP1;P1;durP2;ratioP2;P2;SDS_P1;SDS_P2;PMS_P1;PMS_P2;Temp;Humidity;BMP_temperature;BMP_pressure;BME280_temperature;BME280_humidity;BME280_pressure;Samples;Min_cycle;Max_cycle;Signal;HPM_P1;HPM_P2
2021/05/16 00:01:15;;;;;;;;;;;;;;;13.26;70.23;97131.12;1703187;83;24740;-89
2021/05/16 00:03:44;;;;;;;;;;;;;;;13.25;70.25;97126.39;1689593;83;22070;-90
2021/05/16 00:06:10;;;;;;;;;;;;;;;13.27;70.22;97130.16;1663766;85;26840;-88
2021/05/16 00:08:36;;;;;;;;;;;;;;;13.29;70.22;97124.27;1680172;84;24575;-89
2021/05/16 00:11:02;;;;;;;;;;;;;;;13.31;70.22;97121.80;1691136;83;20288;-89
2021/05/16 00:13:29;;;;;;;;;;;;;;;13.30;70.22;97125.92;1694255;83;24773;-88
2021/05/16 00:15:55;;;;;;;;;;;;;;;13.29;70.24;97123.78;1695536;83;21970;-89
2021/05/16 00:18:26;;;;;;;;;;;;;;;13.29;70.21;97126.41;1701621;83;26757;-89
2021/05/16 00:20:53;;;;;;;;;;;;;;;13.27;70.21;97117.84;1684694;83;24377;-89
2021/05/16 00:23:20;;;;;;;;;;;;;;;13.27;70.22;97117.84;1691144;83;20232;-89
2021/05/16 00:25:46;;;;;;;;;;;;;;;13.24;70.22;97110.29;1689810;84;24796;-88
2021/05/16 00:28:12;;;;;;;;;;;;;;;13.23;70.23;97116.52;1685738;84;20256;-89
2021/05/16 00:30:38;;;;;;;;;;;;;;;13.26;70.22;97113.56;1697761;83;25931;-89
2021/05/16 00:33:04;;;;;;;;;;;;;;;13.25;70.21;97118.52;1701211;83;24499;-89
2021/05/16 00:35:31;;;;;;;;;;;;;;;13.26;70.22;97112.25;1695421;83;20376;-89
2021/05/16 00:37:58;;;;;;;;;;;;;;;13.27;70.22;97117.02;1688304;84;24788;-89
2021/05/16 00:40:25;;;;;;;;;;;;;;;13.27;70.28;97107.83;1693265;83;22173;-89
2021/05/16 00:42:52;;;;;;;;;;;;;;;13.25;70.26;97109.80;1688456;82;26058;-89
2021/05/16 00:45:19;;;;;;;;;;;;;;;13.26;70.30;97114.05;1686082;83;24531;-90
2021/05/16 00:47:47;;;;;;;;;;;;;;;13.27;70.29;97102.08;1687834;84;20602;-89
2021/05/16 00:50:18;;;;;;;;;;;;;;;13.30;70.31;97106.22;1698107;84;24766;-90
2021/05/16 00:52:41;;;;;;;;;;;;;;;13.33;70.28;97108.52;1698445;83;22722;-89
2021/05/16 00:55:08;;;;;;;;;;;;;;;13.33;70.28;97106.72;1695926;84;26011;-90
2021/05/16 00:57:35;;;;;;;;;;;;;;;13.34;70.27;97109.68;1683430;84;24638;-90
2021/05/16 01:00:01;;;;;;;;;;;;;;;13.35;70.27;97101.31;1676573;84;20236;-90
2021/05/16 01:02:27;;;;;;;;;;;;;;;13.38;70.27;97104.92;1685155;83;24894;-90
2021/05/16 01:04:53;;;;;;;;;;;;;;;13.37;70.26;97107.22;1694334;84;20371;-90
2021/05/16 01:07:19;;;;;;;;;;;;;;;13.37;70.27;97103.27;1691770;83;20925;-90
2021/05/16 01:09:45;;;;;;;;;;;;;;;13.37;70.31;97096.70;1689397;83;24635;-90
2021/05/16 01:12:12;;;;;;;;;;;;;;;13.33;70.32;97090.13;1690813;82;20814;-89
2021/05/16 01:14:40;;;;;;;;;;;;;;;13.33;70.30;97096.20;1685520;84;24750;-90
2021/05/16 01:17:06;;;;;;;;;;;;;;;13.37;70.32;97099.33;1689700;84;22009;-89
2021/05/16 01:19:32;;;;;;;;;;;;;;;13.40;70.31;97092.46;1690626;84;25972;-89
2021/05/16 01:21:59;;;;;;;;;;;;;;;13.42;70.30;97098.88;1687219;83;24507;-89
2021/05/16 01:24:27;;;;;;;;;;;;;;;13.41;70.31;97098.06;1714823;82;20288;-89
2021/05/16 01:26:54;;;;;;;;;;;;;;;13.43;70.31;97096.56;1712169;83;25672;-91
2021/05/16 01:29:20;;;;;;;;;;;;;;;13.40;70.32;97097.23;1712359;83;22655;-90
2021/05/16 01:31:47;;;;;;;;;;;;;;;13.40;70.32;97100.34;1725267;83;25958;-90
2021/05/16 01:34:13;;;;;;;;;;;;;;;13.36;70.32;97098.50;1705508;83;25164;-91
2021/05/16 01:36:39;;;;;;;;;;;;;;;13.36;70.35;97091.94;1723291;83;20413;-89
2021/05/16 01:39:10;;;;;;;;;;;;;;;13.37;70.35;97099.33;1714185;83;24797;-89
2021/05/16 01:41:37;;;;;;;;;;;;;;;13.36;70.36;97092.45;1718667;83;22054;-89
2021/05/16 01:44:03;;;;;;;;;;;;;;;13.38;70.35;97098.36;1715494;83;25918;-89
2021/05/16 01:46:31;;;;;;;;;;;;;;;13.38;70.36;97091.30;1714915;81;24397;-90
2021/05/16 01:49:03;;;;;;;;;;;;;;;13.36;70.39;97089.83;1705951;83;20310;-89
2021/05/16 01:51:29;;;;;;;;;;;;;;;13.34;70.39;97084.72;1696787;83;24740;-89
2021/05/16 01:53:56;;;;;;;;;;;;;;;13.38;70.46;97083.91;1703628;83;22058;-89
2021/05/16 01:56:27;;;;;;;;;;;;;;;13.37;70.46;97088.33;1711613;82;25946;-89
2021/05/16 01:58:55;;;;;;;;;;;;;;;13.40;70.49;97092.46;1715568;83;24375;-89
2021/05/16 02:01:22;;;;;;;;;;;;;;;13.43;70.48;97091.31;1714732;83;20580;-89
2021/05/16 02:03:49;;;;;;;;;;;;;;;13.47;70.48;97090.86;1718810;83;25003;-89
2021/05/16 02:06:15;;;;;;;;;;;;;;;13.49;70.49;97088.05;1722906;83;22949;-90
2021/05/16 02:08:43;;;;;;;;;;;;;;;13.48;70.50;97088.54;1717206;82;26097;-89
2021/05/16 02:11:09;;;;;;;;;;;;;;;13.46;70.52;97087.89;1712200;83;24450;-89
2021/05/16 02:13:40;;;;;;;;;;;;;;;13.43;70.51;97085.56;1710054;83;20196;-89
2021/05/16 02:16:07;;;;;;;;;;;;;;;13.41;70.53;97080.98;1715967;82;24793;-89
2021/05/16 02:18:33;;;;;;;;;;;;;;;13.35;70.58;97082.43;1716904;82;22151;-89
2021/05/16 02:21:00;;;;;;;;;;;;;;;13.34;70.63;97079.47;1717534;83;26070;-89
2021/05/16 02:23:28;;;;;;;;;;;;;;;13.34;70.67;97082.09;1694038;83;24549;-89
2021/05/16 02:26:00;;;;;;;;;;;;;;;13.34;70.67;97084.72;1690915;84;20209;-89
2021/05/16 02:28:26;;;;;;;;;;;;;;;13.33;70.67;97082.23;1688602;83;24787;-90
2021/05/16 02:30:52;;;;;;;;;;;;;;;13.35;70.69;97080.29;1688616;82;21909;-90
2021/05/16 02:33:18;;;;;;;;;;;;;;;13.35;70.72;97077.17;1688709;84;26194;-90
2021/05/16 02:35:44;;;;;;;;;;;;;;;13.36;70.73;97083.25;1695313;84;20269;-90
2021/05/16 02:38:10;;;;;;;;;;;;;;;13.33;70.76;97080.44;1689742;84;20310;-89
2021/05/16 02:40:36;;;;;;;;;;;;;;;13.29;70.77;97073.03;1695931;83;24843;-90
2021/05/16 02:43:02;;;;;;;;;;;;;;;13.28;70.77;97073.52;1666555;83;21664;-88
2021/05/16 02:45:28;;;;;;;;;;;;;;;13.29;70.78;97069.09;1695107;82;26582;-89
2021/05/16 02:47:54;;;;;;;;;;;;;;;13.25;70.78;97064.66;1697015;82;24462;-89
2021/05/16 02:50:21;;;;;;;;;;;;;;;13.20;70.77;97063.47;1688403;84;20189;-89
2021/05/16 02:52:47;;;;;;;;;;;;;;;13.17;70.82;97063.77;1692615;82;24767;-88
2021/05/16 02:55:13;;;;;;;;;;;;;;;13.19;70.85;97057.88;1690756;83;20309;-88
2021/05/16 02:57:39;;;;;;;;;;;;;;;13.18;70.88;97059.68;1683980;82;25892;-87
2021/05/16 03:00:20;;;;;;;;;;;;;;;13.14;70.91;97053.10;1687994;84;24334;-88
2021/05/16 03:02:46;;;;;;;;;;;;;;;13.11;70.91;97059.94;1697464;82;20257;-88
2021/05/16 03:05:12;;;;;;;;;;;;;;;13.13;70.93;97054.56;1696227;82;24916;-90
2021/05/16 03:07:39;;;;;;;;;;;;;;;13.11;70.94;97053.86;1689191;83;21976;-89
2021/05/16 03:10:06;;;;;;;;;;;;;;;13.13;70.94;97059.81;1687084;83;25944;-89
2021/05/16 03:12:32;;;;;;;;;;;;;;;13.13;70.94;97057.19;1702368;82;24598;-89
2021/05/16 03:14:58;;;;;;;;;;;;;;;13.11;70.97;97045.97;1691435;82;20297;-89
2021/05/16 03:17:24;;;;;;;;;;;;;;;13.07;70.97;97045.47;1693314;83;24768;-89
2021/05/16 03:19:50;;;;;;;;;;;;;;;13.11;70.97;97052.54;1699038;82;20338;-89
2021/05/16 03:22:16;;;;;;;;;;;;;;;13.14;70.99;97055.73;1694070;83;21195;-89
2021/05/16 03:24:42;;;;;;;;;;;;;;;13.17;70.97;97049.33;1694875;82;24503;-89
2021/05/16 03:27:08;;;;;;;;;;;;;;;13.16;70.98;97047.19;1685240;83;20279;-88
2021/05/16 03:29:35;;;;;;;;;;;;;;;13.18;70.98;97049.66;1702070;83;24776;-88
2021/05/16 03:32:01;;;;;;;;;;;;;;;13.19;70.97;97052.14;1696563;83;21836;-91
2021/05/16 03:34:27;;;;;;;;;;;;;;;13.23;70.97;97052.64;1694471;83;26183;-90
2021/05/16 03:36:54;;;;;;;;;;;;;;;13.25;70.97;97052.00;1698648;82;24503;-91
2021/05/16 03:39:20;;;;;;;;;;;;;;;13.28;70.99;97057.75;1697956;83;20703;-90
2021/05/16 03:41:47;;;;;;;;;;;;;;;13.28;70.99;97055.12;1698050;83;24766;-91
2021/05/16 03:44:14;;;;;;;;;;;;;;;13.29;70.97;97055.47;1704870;82;22082;-91
2021/05/16 03:46:40;;;;;;;;;;;;;;;13.33;70.98;97061.22;1706389;83;26080;-90
2021/05/16 03:49:06;;;;;;;;;;;;;;;13.30;70.97;97050.55;1700977;83;24429;-89
2021/05/16 03:51:33;;;;;;;;;;;;;;;13.34;70.99;97053.67;1694676;82;20242;-89
2021/05/16 03:53:59;;;;;;;;;;;;;;;13.34;71.00;97062.38;1703514;83;24722;-87
2021/05/16 03:56:36;;;;;;;;;;;;;;;13.36;70.99;97053.83;1699229;83;21991;-87
2021/05/16 03:59:03;;;;;;;;;;;;;;;13.43;71.02;97068.48;1692557;83;26019;-88
2021/05/16 04:01:33;;;;;;;;;;;;;;;13.47;71.05;97057.19;1707637;83;24448;-87
2021/05/16 04:03:58;;;;;;;;;;;;;;;13.49;71.10;97063.08;1658374;86;20535;-88
2021/05/16 04:06:24;;;;;;;;;;;;;;;13.50;71.08;97061.63;1650632;86;25947;-88
2021/05/16 04:08:54;;;;;;;;;;;;;;;13.50;71.10;97059.48;1625392;88;22175;-88
2021/05/16 04:11:18;;;;;;;;;;;;;;;13.52;71.08;97063.61;1648857;84;25970;-88
2021/05/16 04:13:44;;;;;;;;;;;;;;;13.51;71.09;97063.77;1690764;83;24399;-88
2021/05/16 04:16:10;;;;;;;;;;;;;;;13.53;71.06;97063.92;1666829;84;20286;-88
2021/05/16 04:18:36;;;;;;;;;;;;;;;13.56;71.02;97063.62;1670478;84;24637;-87
2021/05/16 04:21:04;;;;;;;;;;;;;;;13.60;71.02;97064.11;1669276;83;20280;-87
2021/05/16 04:23:30;;;;;;;;;;;;;;;13.62;71.00;97066.10;1668718;83;25998;-87
2021/05/16 04:25:56;;;;;;;;;;;;;;;13.63;70.99;97065.13;1673297;84;20389;-88
2021/05/16 04:28:22;;;;;;;;;;;;;;;13.65;70.98;97064.45;1687584;82;20205;-87
2021/05/16 04:30:49;;;;;;;;;;;;;;;13.66;70.96;97059.53;1694227;82;24751;-87
2021/05/16 04:33:15;;;;;;;;;;;;;;;13.69;70.96;97065.28;1691020;82;21910;-87
2021/05/16 04:35:41;;;;;;;;;;;;;;;13.70;70.95;97062.99;1660281;82;27389;-87
2021/05/16 04:38:07;;;;;;;;;;;;;;;13.71;70.91;97067.77;1654959;83;24556;-87
2021/05/16 04:40:33;;;;;;;;;;;;;;;13.75;70.90;97063.33;1664535;83;20318;-87
2021/05/16 04:43:00;;;;;;;;;;;;;;;13.73;70.85;97065.81;1680223;83;25417;-87
2021/05/16 04:45:26;;;;;;;;;;;;;;;13.66;70.84;97068.25;1683401;83;21987;-87
2021/05/16 04:47:52;;;;;;;;;;;;;;;13.67;70.81;97071.70;1688865;83;20845;-86
2021/05/16 04:50:19;;;;;;;;;;;;;;;13.65;70.80;97072.34;1692093;83;24393;-87
2021/05/16 04:52:45;;;;;;;;;;;;;;;13.63;70.73;97073.84;1681570;84;20244;-87
2021/05/16 04:55:12;;;;;;;;;;;;;;;13.61;70.74;97077.59;1678031;84;25625;-86
2021/05/16 04:57:38;;;;;;;;;;;;;;;13.56;70.71;97077.25;1671188;84;22002;-87
2021/05/16 05:00:07;;;;;;;;;;;;;;;13.54;70.69;97075.26;1678483;85;25977;-87
2021/05/16 05:02:34;;;;;;;;;;;;;;;13.55;70.70;97076.42;1675988;84;24422;-87
2021/05/16 05:05:00;;;;;;;;;;;;;;;13.57;70.69;97079.73;1677969;83;20423;-87
2021/05/16 05:07:26;;;;;;;;;;;;;;;13.59;70.67;97076.91;1651576;84;24857;-87
2021/05/16 05:09:52;;;;;;;;;;;;;;;13.58;70.68;97076.09;1672282;83;22131;-87
2021/05/16 05:12:18;;;;;;;;;;;;;;;13.57;70.70;97081.53;1686552;82;26087;-88
2021/05/16 05:14:44;;;;;;;;;;;;;;;13.53;70.72;97083.63;1667383;84;24503;-88
2021/05/16 05:17:10;;;;;;;;;;;;;;;13.47;70.75;97088.72;1690592;84;20205;-88
2021/05/16 05:19:36;;;;;;;;;;;;;;;13.43;70.82;97086.88;1667551;82;24842;-88
2021/05/16 05:22:02;;;;;;;;;;;;;;;13.35;70.95;97086.86;1682655;84;20262;-88
2021/05/16 05:24:30;;;;;;;;;;;;;;;13.29;71.05;97092.73;1691626;82;21342;-88
2021/05/16 05:26:56;;;;;;;;;;;;;;;13.24;71.19;97093.70;1709035;83;25413;-88
2021/05/16 05:29:23;;;;;;;;;;;;;;;13.22;71.33;97093.84;1706166;83;20284;-88
2021/05/16 05:31:50;;;;;;;;;;;;;;;13.18;71.44;97093.01;1706146;83;24801;-88
2021/05/16 05:34:16;;;;;;;;;;;;;;;13.15;71.58;97083.62;1703537;83;22634;-88
2021/05/16 05:36:42;;;;;;;;;;;;;;;13.12;71.72;97081.32;1700658;83;25946;-88
2021/05/16 05:39:08;;;;;;;;;;;;;;;13.13;71.82;97081.66;1708295;83;24515;-88
2021/05/16 05:41:37;;;;;;;;;;;;;;;13.17;71.98;97083.47;1710460;83;20353;-88
2021/05/16 05:44:07;;;;;;;;;;;;;;;13.24;72.12;97084.50;1681173;83;25463;-88
2021/05/16 05:46:33;;;;;;;;;;;;;;;13.30;72.23;97076.83;1688944;83;21955;-88
2021/05/16 05:48:59;;;;;;;;;;;;;;;13.37;72.36;97079.13;1689938;83;26187;-87
2021/05/16 05:51:25;;;;;;;;;;;;;;;13.44;72.46;97082.45;1691628;83;24423;-88
2021/05/16 05:53:51;;;;;;;;;;;;;;;13.48;72.54;97079.83;1669698;83;20456;-87
2021/05/16 05:56:17;;;;;;;;;;;;;;;13.53;72.60;97082.84;1696104;83;25396;-87
2021/05/16 05:58:43;;;;;;;;;;;;;;;13.57;72.67;97081.04;1704436;83;20625;-87
2021/05/16 06:01:09;;;;;;;;;;;;;;;13.58;72.74;97076.61;1701941;83;26002;-87
2021/05/16 06:03:35;;;;;;;;;;;;;;;13.58;72.81;97083.98;1684538;83;25128;-88
2021/05/16 06:06:01;;;;;;;;;;;;;;;13.62;72.83;97083.19;1677187;83;20241;-89
2021/05/16 06:08:27;;;;;;;;;;;;;;;13.62;72.85;97078.76;1676560;83;20234;-88
2021/05/16 06:10:55;;;;;;;;;;;;;;;13.65;72.89;97090.26;1685743;83;22067;-87
2021/05/16 06:13:21;;;;;;;;;;;;;;;13.67;72.92;97090.93;1648746;84;26005;-87
2021/05/16 06:15:47;;;;;;;;;;;;;;;13.69;72.92;97090.78;1705111;83;24542;-87
2021/05/16 06:18:16;;;;;;;;;;;;;;;13.70;72.93;97094.55;1678630;83;20356;-87
2021/05/16 06:20:42;;;;;;;;;;;;;;;13.69;72.96;97096.04;1671475;83;24907;-87
2021/05/16 06:23:11;;;;;;;;;;;;;;;13.65;72.96;97103.89;1708953;83;20326;-88
2021/05/16 06:25:37;;;;;;;;;;;;;;;13.63;72.97;97104.56;1704029;83;26671;-87
2021/05/16 06:28:03;;;;;;;;;;;;;;;13.64;73.01;97110.95;1667512;84;24446;-89
2021/05/16 06:30:30;;;;;;;;;;;;;;;13.65;73.08;97109.97;1663665;84;20375;-89
2021/05/16 06:32:56;;;;;;;;;;;;;;;13.68;73.12;97117.56;1646496;86;24959;-88
2021/05/16 06:35:22;;;;;;;;;;;;;;;13.72;73.21;97116.25;1645899;86;20320;-89
2021/05/16 06:37:48;;;;;;;;;;;;;;;13.75;73.29;97119.86;1687518;83;26627;-89
2021/05/16 06:40:14;;;;;;;;;;;;;;;13.77;73.36;97119.72;1675469;83;24671;-88
2021/05/16 06:42:41;;;;;;;;;;;;;;;13.77;73.41;97128.43;1646119;85;20432;-88
2021/05/16 06:45:08;;;;;;;;;;;;;;;13.79;73.45;97130.42;1667621;83;24904;-88
2021/05/16 06:47:34;;;;;;;;;;;;;;;13.82;73.53;97128.77;1686070;83;22123;-88
2021/05/16 06:50:03;;;;;;;;;;;;;;;13.83;73.60;97138.80;1638358;85;21048;-89
2021/05/16 06:52:29;;;;;;;;;;;;;;;13.85;73.67;97146.55;1678917;83;24492;-89
2021/05/16 06:54:55;;;;;;;;;;;;;;;13.78;73.68;97155.06;1680440;83;20348;-89
2021/05/16 06:57:21;;;;;;;;;;;;;;;13.75;73.71;97158.48;1678459;84;24935;-88
2021/05/16 06:59:47;;;;;;;;;;;;;;;13.70;73.77;97160.27;1681771;83;22018;-89
2021/05/16 07:02:13;;;;;;;;;;;;;;;13.71;73.80;97166.36;1681114;84;26527;-88
2021/05/16 07:04:42;;;;;;;;;;;;;;;13.69;73.90;97174.91;1683433;84;24429;-88
2021/05/16 07:07:07;;;;;;;;;;;;;;;13.67;73.97;97169.80;1680407;83;20663;-89
2021/05/16 07:09:33;;;;;;;;;;;;;;;13.70;74.05;97176.05;1678650;83;24782;-89
2021/05/16 07:12:01;;;;;;;;;;;;;;;13.75;74.16;97176.88;1678169;84;21944;-89
2021/05/16 07:14:27;;;;;;;;;;;;;;;13.82;74.27;97183.17;1678118;83;25947;-89
2021/05/16 07:16:53;;;;;;;;;;;;;;;13.84;74.37;97186.48;1682806;83;24529;-89
2021/05/16 07:19:19;;;;;;;;;;;;;;;13.90;74.46;97192.91;1685464;84;20816;-89
2021/05/16 07:21:45;;;;;;;;;;;;;;;13.96;74.56;97193.60;1685759;83;24840;-89
2021/05/16 07:24:12;;;;;;;;;;;;;;;13.97;74.67;97195.22;1688445;84;21959;-89
2021/05/16 07:26:38;;;;;;;;;;;;;;;13.97;74.75;97197.37;1690850;82;25994;-89
2021/05/16 07:29:04;;;;;;;;;;;;;;;13.95;74.79;97194.58;1692912;83;20260;-89
2021/05/16 07:31:30;;;;;;;;;;;;;;;13.92;74.82;97189.13;1690329;84;20244;-89
2021/05/16 07:33:56;;;;;;;;;;;;;;;13.90;74.86;97187.16;1692175;83;20235;-89
2021/05/16 07:36:22;;;;;;;;;;;;;;;13.91;74.87;97194.05;1696362;83;21980;-89
2021/05/16 07:38:48;;;;;;;;;;;;;;;13.93;74.90;97192.58;1700636;82;26026;-89
2021/05/16 07:41:21;;;;;;;;;;;;;;;13.96;74.92;97192.28;1696956;83;24369;-89
2021/05/16 07:43:47;;;;;;;;;;;;;;;13.90;74.89;97196.86;1668830;83;20289;-89
2021/05/16 07:46:15;;;;;;;;;;;;;;;13.94;74.91;97196.87;1673320;83;24827;-89
2021/05/16 07:48:41;;;;;;;;;;;;;;;13.94;74.91;97197.70;1687920;84;21914;-89
2021/05/16 07:51:07;;;;;;;;;;;;;;;13.94;74.92;97200.81;1693877;84;20866;-89
2021/05/16 07:53:35;;;;;;;;;;;;;;;14.00;74.94;97202.81;1689664;84;24512;-90
2021/05/16 07:56:03;;;;;;;;;;;;;;;14.03;74.94;97198.54;1695583;83;20241;-90
2021/05/16 07:58:29;;;;;;;;;;;;;;;14.00;74.95;97201.50;1671320;85;24757;-89
2021/05/16 08:01:00;;;;;;;;;;;;;;;13.95;74.93;97195.89;1689506;84;22099;-88
2021/05/16 08:03:27;;;;;;;;;;;;;;;13.99;74.92;97192.78;1704676;82;26035;-89
2021/05/16 08:05:53;;;;;;;;;;;;;;;13.99;74.93;97194.58;1700184;83;24446;-89
2021/05/16 08:08:19;;;;;;;;;;;;;;;13.97;74.92;97191.28;1696082;84;20299;-89
2021/05/16 08:10:46;;;;;;;;;;;;;;;13.94;74.92;97190.30;1699709;84;24808;-89
2021/05/16 08:13:12;;;;;;;;;;;;;;;14.00;74.92;97192.30;1685058;83;21980;-89
2021/05/16 08:15:39;;;;;;;;;;;;;;;14.06;74.95;97184.59;1694650;83;25943;-89
2021/05/16 08:18:05;;;;;;;;;;;;;;;14.09;75.04;97185.58;1693253;83;24515;-90
2021/05/16 08:20:31;;;;;;;;;;;;;;;14.21;75.11;97183.48;1693794;83;20211;-90
2021/05/16 08:22:57;;;;;;;;;;;;;;;14.38;75.11;97183.06;1683378;84;24750;-88
2021/05/16 08:25:24;;;;;;;;;;;;;;;14.50;75.13;97187.05;1691473;83;22070;-89
2021/05/16 08:27:51;;;;;;;;;;;;;;;14.47;75.14;97182.09;1711588;82;25954;-90
2021/05/16 08:30:18;;;;;;;;;;;;;;;14.43;75.12;97177.65;1699503;82;24712;-90
2021/05/16 08:32:44;;;;;;;;;;;;;;;14.53;75.11;97179.63;1704454;83;20228;-90
2021/05/16 08:35:12;;;;;;;;;;;;;;;14.58;75.10;97183.92;1697372;83;24786;-89
2021/05/16 08:37:40;;;;;;;;;;;;;;;14.63;75.05;97185.57;1696652;83;22730;-90
2021/05/16 08:40:17;;;;;;;;;;;;;;;14.71;75.01;97193.16;1708420;83;26066;-90
2021/05/16 08:42:43;;;;;;;;;;;;;;;14.75;75.01;97191.34;1696111;83;24416;-90
2021/05/16 08:45:12;;;;;;;;;;;;;;;14.80;75.00;97196.12;1697510;83;20672;-89
2021/05/16 08:47:39;;;;;;;;;;;;;;;14.84;74.97;97198.75;1698698;83;25590;-90
2021/05/16 08:50:13;;;;;;;;;;;;;;;14.88;75.00;97195.65;1700837;83;22158;-90
2021/05/16 08:52:39;;;;;;;;;;;;;;;14.93;75.01;97201.73;1700381;82;26678;-91
2021/05/16 08:55:08;;;;;;;;;;;;;;;14.98;75.03;97193.67;1707656;83;20454;-91
2021/05/16 08:57:34;;;;;;;;;;;;;;;15.07;75.09;97206.34;1703654;83;20251;-89
2021/05/16 09:00:14;;;;;;;;;;;;;;;15.12;75.13;97205.34;1699939;83;25030;-89
2021/05/16 09:02:59;;;;;;;;;;;;;;;15.10;75.15;97204.70;1708140;82;22043;-89
2021/05/16 09:05:27;;;;;;;;;;;;;;;15.16;75.18;97200.09;1706843;82;26070;-89
2021/05/16 09:07:59;;;;;;;;;;;;;;;15.24;75.21;97204.03;1708875;83;24549;-88
2021/05/16 09:10:34;;;;;;;;;;;;;;;15.25;75.26;97204.36;1691632;83;20308;-90
2021/05/16 09:13:11;;;;;;;;;;;;;;;15.26;75.23;97202.06;1656086;84;24774;-89
2021/05/16 09:15:37;;;;;;;;;;;;;;;15.32;75.20;97208.48;1662788;84;22158;-88
2021/05/16 09:18:03;;;;;;;;;;;;;;;15.40;75.19;97207.96;1653717;84;21251;-88
2021/05/16 09:20:29;;;;;;;;;;;;;;;15.48;75.20;97210.59;1686327;84;25096;-89
2021/05/16 09:22:56;;;;;;;;;;;;;;;15.55;75.21;97215.23;1696164;84;20229;-88
2021/05/16 09:25:32;;;;;;;;;;;;;;;15.63;75.22;97216.03;1679395;84;24862;-88
2021/05/16 09:28:07;;;;;;;;;;;;;;;15.69;75.18;97212.72;1677423;84;21970;-89
2021/05/16 09:30:34;;;;;;;;;;;;;;;15.72;75.11;97215.50;1664512;84;26050;-89
2021/05/16 09:33:01;;;;;;;;;;;;;;;15.73;75.04;97213.20;1635242;84;25383;-89
2021/05/16 09:35:32;;;;;;;;;;;;;;;15.72;74.95;97214.18;1704413;83;20319;-88
2021/05/16 09:38:12;;;;;;;;;;;;;;;15.64;74.84;97221.64;1666251;84;24825;-88
2021/05/16 09:40:41;;;;;;;;;;;;;;;15.53;74.69;97217.20;1714433;82;21983;-88
2021/05/16 09:43:08;;;;;;;;;;;;;;;15.46;74.57;97219.16;1712036;83;25980;-88
2021/05/16 09:45:48;;;;;;;;;;;;;;;15.48;74.48;97213.23;1706870;82;24442;-88
2021/05/16 09:48:36;;;;;;;;;;;;;;;15.51;74.43;97216.02;1706543;83;20301;-88
2021/05/16 09:51:17;;;;;;;;;;;;;;;15.51;74.37;97216.02;1719279;82;24981;-89
2021/05/16 09:53:51;;;;;;;;;;;;;;;15.49;74.28;97216.70;1714829;83;22694;-89
2021/05/16 09:56:20;;;;;;;;;;;;;;;15.56;74.24;97211.58;1723536;83;26757;-88
2021/05/16 09:58:46;;;;;;;;;;;;;;;15.54;74.16;97213.59;1719916;82;25362;-89
2021/05/16 10:01:16;;;;;;;;;;;;;;;15.55;74.14;97216.55;1713754;82;20283;-88
2021/05/16 10:03:42;;;;;;;;;;;;;;;15.54;74.07;97209.63;1702010;82;24839;-91
2021/05/16 10:06:08;;;;;;;;;;;;;;;15.60;74.05;97212.91;1707110;82;22093;-89
2021/05/16 10:08:35;;;;;;;;;;;;;;;15.62;74.04;97218.83;1711695;83;25975;-89
2021/05/16 10:11:07;;;;;;;;;;;;;;;15.60;73.97;97222.15;1706835;83;23917;-89
2021/05/16 10:13:35;;;;;;;;;;;;;;;15.65;73.95;97218.51;1710746;83;20179;-89
2021/05/16 10:16:02;;;;;;;;;;;;;;;15.67;73.88;97221.78;1705913;83;24865;-89
2021/05/16 10:18:31;;;;;;;;;;;;;;;15.66;73.84;97213.04;1706704;82;22568;-89
2021/05/16 10:21:03;;;;;;;;;;;;;;;15.63;73.73;97219.16;1706740;83;26206;-89
2021/05/16 10:23:35;;;;;;;;;;;;;;;15.64;73.62;97218.17;1709265;83;25257;-89
2021/05/16 10:26:19;;;;;;;;;;;;;;;15.70;73.56;97218.82;1706505;83;20340;-90
2021/05/16 10:28:56;;;;;;;;;;;;;;;15.76;73.45;97222.11;1687881;83;24846;-91
2021/05/16 10:31:39;;;;;;;;;;;;;;;15.80;73.38;97224.23;1689239;83;22044;-89
2021/05/16 10:34:24;;;;;;;;;;;;;;;15.88;73.28;97226.83;1685200;84;26637;-89
2021/05/16 10:36:50;;;;;;;;;;;;;;;16.01;73.25;97226.30;1697204;83;24444;-89
2021/05/16 10:39:35;;;;;;;;;;;;;;;16.09;73.24;97225.47;1678165;83;20267;-89
2021/05/16 10:42:15;;;;;;;;;;;;;;;16.16;73.20;97232.51;1697846;83;24785;-89
2021/05/16 10:44:59;;;;;;;;;;;;;;;16.22;73.08;97235.78;1697305;83;22089;-88
2021/05/16 10:47:43;;;;;;;;;;;;;;;16.28;72.94;97234.28;1694572;83;25951;-88
2021/05/16 10:50:10;;;;;;;;;;;;;;;16.30;72.80;97238.41;1694409;83;24588;-88
2021/05/16 10:52:37;;;;;;;;;;;;;;;16.28;72.66;97231.14;1692146;83;20350;-88
2021/05/16 10:55:04;;;;;;;;;;;;;;;16.26;72.51;97237.08;1693273;83;24985;-89
2021/05/16 10:57:40;;;;;;;;;;;;;;;16.21;72.25;97233.31;1688300;83;21989;-88
2021/05/16 11:00:24;;;;;;;;;;;;;;;16.17;72.03;97231.52;1663480;85;25937;-88
2021/05/16 11:05:50;;;;;;;;;;;;;;;16.24;71.70;97232.98;1620116;87;20289;-89
2021/05/16 11:08:26;;;;;;;;;;;;;;;16.24;71.45;97232.98;1622157;87;25611;-88
2021/05/16 11:10:55;;;;;;;;;;;;;;;16.25;71.24;97235.95;1622520;87;22046;-89
2021/05/16 11:13:26;;;;;;;;;;;;;;;16.23;71.06;97235.30;1635197;86;26064;-89
2021/05/16 11:15:58;;;;;;;;;;;;;;;16.20;70.83;97235.65;1679372;83;24957;-89
2021/05/16 11:18:24;;;;;;;;;;;;;;;16.12;70.54;97239.13;1668975;84;20300;-88
2021/05/16 11:20:52;;;;;;;;;;;;;;;16.06;70.23;97231.89;1687537;84;25039;-88
2021/05/16 11:23:22;;;;;;;;;;;;;;;16.03;70.03;97232.25;1689017;84;21831;-88
2021/05/16 11:25:56;;;;;;;;;;;;;;;16.02;69.90;97231.92;1687984;84;26129;-88
2021/05/16 11:28:23;;;;;;;;;;;;;;;16.07;69.80;97233.55;1687360;83;24590;-89
2021/05/16 11:30:50;;;;;;;;;;;;;;;16.11;69.76;97225.60;1692398;84;20279;-89
2021/05/16 11:33:26;;;;;;;;;;;;;;;16.18;69.72;97231.85;1682390;82;24806;-88
2021/05/16 11:35:52;;;;;;;;;;;;;;;16.28;69.74;97226.36;1704089;83;22118;-88
2021/05/16 11:38:26;;;;;;;;;;;;;;;16.41;69.76;97220.03;1691144;82;25913;-89
2021/05/16 11:40:54;;;;;;;;;;;;;;;16.53;69.79;97219.95;1683015;84;24425;-88
2021/05/16 11:43:31;;;;;;;;;;;;;;;16.63;69.73;97216.64;1685029;84;20199;-88
2021/05/16 11:45:57;;;;;;;;;;;;;;;16.66;69.60;97215.45;1695535;82;24916;-88
2021/05/16 11:48:36;;;;;;;;;;;;;;;16.71;69.47;97210.47;1697494;83;22062;-88
2021/05/16 11:51:05;;;;;;;;;;;;;;;16.71;69.29;97215.25;1688856;84;26834;-89
2021/05/16 11:53:38;;;;;;;;;;;;;;;16.64;68.99;97212.98;1694419;83;25345;-88
2021/05/16 11:56:03;;;;;;;;;;;;;;;16.62;68.79;97216.31;1702294;83;20242;-88
2021/05/16 11:58:30;;;;;;;;;;;;;;;16.65;68.64;97213.80;1680552;83;24774;-88
2021/05/16 12:00:58;;;;;;;;;;;;;;;16.69;68.50;97212.48;1684525;83;22038;-88
2021/05/16 12:03:25;;;;;;;;;;;;;;;16.73;68.44;97215.09;1691219;84;25999;-88
2021/05/16 12:05:54;;;;;;;;;;;;;;;16.67;68.28;97215.78;1685890;84;24412;-88
2021/05/16 12:08:21;;;;;;;;;;;;;;;16.58;68.10;97216.28;1680523;84;20223;-88
2021/05/16 12:10:49;;;;;;;;;;;;;;;16.53;67.91;97216.52;1681202;84;24755;-83
2021/05/16 12:13:20;;;;;;;;;;;;;;;16.53;67.77;97216.52;1681533;83;22763;-83
2021/05/16 12:15:46;;;;;;;;;;;;;;;16.57;67.67;97214.66;1685529;84;27223;-83
2021/05/16 12:18:20;;;;;;;;;;;;;;;16.63;67.67;97215.81;1693832;84;24757;-83
2021/05/16 12:20:46;;;;;;;;;;;;;;;16.65;67.58;97213.80;1695580;83;20675;-83
2021/05/16 12:23:12;;;;;;;;;;;;;;;16.66;67.48;97213.64;1706589;83;25210;-83
2021/05/16 12:25:38;;;;;;;;;;;;;;;16.69;67.43;97217.23;1692334;84;22626;-83
2021/05/16 12:28:07;;;;;;;;;;;;;;;16.66;67.30;97212.31;1694672;82;26182;-84
2021/05/16 12:30:33;;;;;;;;;;;;;;;16.65;67.21;97209.34;1704862;81;25021;-83
2021/05/16 12:32:59;;;;;;;;;;;;;;;16.63;67.12;97209.21;1710507;83;20283;-83
2021/05/16 12:35:33;;;;;;;;;;;;;;;16.67;67.08;97210.00;1671977;82;22349;-84
2021/05/16 12:38:12;;;;;;;;;;;;;;;16.70;67.04;97208.81;1674968;83;20558;-84
2021/05/16 12:40:38;;;;;;;;;;;;;;;16.72;66.95;97211.63;1675299;84;26546;-84
2021/05/16 12:43:05;;;;;;;;;;;;;;;16.73;66.87;97206.66;1671680;83;24565;-84
2021/05/16 12:45:31;;;;;;;;;;;;;;;16.85;66.82;97203.12;1673505;83;20743;-83
2021/05/16 12:47:59;;;;;;;;;;;;;;;17.11;66.89;97193.49;1673683;83;24778;-84
2021/05/16 12:50:32;;;;;;;;;;;;;;;17.31;66.90;97189.34;1675702;83;21992;-84
2021/05/16 12:53:19;;;;;;;;;;;;;;;17.31;66.72;97188.52;1682179;84;26089;-84
2021/05/16 12:55:45;;;;;;;;;;;;;;;17.21;66.49;97186.63;1659725;84;24592;-84